Terminal Aerodrome Forecast
Issued by NWS Wilmington, OH

Current Version | Previous Version | Graphics & Text | Print | Product List | Glossary On
Versions: 1 2 3 4 5 6 7 8 9 10 11 12 13 14
000
FTUS41 KILN 261129
TAFDAY
TAF
KDAY 261129Z 2612/2712 25004KT P6SM FEW080
     FM261400 28014G18KT P6SM SCT060
     FM270100 26007KT P6SM BKN060
     FM270600 28005KT P6SM FEW050 SCT100=

USA.gov is the U.S. government's official web portal to all federal, state and local government web resources and services.